sensor_id;sensor_type;location;lat;lon;timestamp;P1;durP1;ratioP1;P2;durP2;ratioP2
51216;SDS011;37283;49.760;8.648;2023-12-20T00:01:16;3.50;;;3.10;;
51216;SDS011;37283;49.760;8.648;2023-12-20T00:03:43;5.35;;;3.70;;
51216;SDS011;37283;49.760;8.648;2023-12-20T00:06:09;5.40;;;3.80;;
51216;SDS011;37283;49.760;8.648;2023-12-20T00:08:37;3.80;;;3.35;;
51216;SDS011;37283;49.760;8.648;2023-12-20T00:11:03;6.20;;;3.85;;
51216;SDS011;37283;49.760;8.648;2023-12-20T00:13:30;5.25;;;4.10;;
51216;SDS011;37283;49.760;8.648;2023-12-20T00:15:57;5.32;;;3.78;;
51216;SDS011;37283;49.760;8.648;2023-12-20T00:18:23;3.92;;;3.28;;
51216;SDS011;37283;49.760;8.648;2023-12-20T00:20:50;4.35;;;3.58;;
51216;SDS011;37283;49.760;8.648;2023-12-20T00:23:19;4.45;;;3.35;;
51216;SDS011;37283;49.760;8.648;2023-12-20T00:25:46;3.85;;;3.13;;
51216;SDS011;37283;49.760;8.648;2023-12-20T00:28:13;4.00;;;3.10;;
51216;SDS011;37283;49.760;8.648;2023-12-20T00:30:40;4.72;;;3.70;;
51216;SDS011;37283;49.760;8.648;2023-12-20T00:33:06;4.43;;;3.67;;
51216;SDS011;37283;49.760;8.648;2023-12-20T00:35:33;4.13;;;3.50;;
51216;SDS011;37283;49.760;8.648;2023-12-20T00:38:00;4.50;;;3.53;;
51216;SDS011;37283;49.760;8.648;2023-12-20T00:40:26;4.22;;;3.38;;
51216;SDS011;37283;49.760;8.648;2023-12-20T00:42:53;4.50;;;3.40;;
51216;SDS011;37283;49.760;8.648;2023-12-20T00:45:20;4.30;;;3.55;;
51216;SDS011;37283;49.760;8.648;2023-12-20T00:47:46;4.50;;;3.28;;
51216;SDS011;37283;49.760;8.648;2023-12-20T00:50:13;4.00;;;3.58;;
51216;SDS011;37283;49.760;8.648;2023-12-20T00:52:40;4.30;;;3.15;;
51216;SDS011;37283;49.760;8.648;2023-12-20T00:55:06;3.70;;;3.30;;
51216;SDS011;37283;49.760;8.648;2023-12-20T00:57:34;3.70;;;2.80;;
51216;SDS011;37283;49.760;8.648;2023-12-20T01:00:01;3.08;;;2.78;;
51216;SDS011;37283;49.760;8.648;2023-12-20T01:02:28;5.05;;;3.25;;
51216;SDS011;37283;49.760;8.648;2023-12-20T01:04:54;4.82;;;3.78;;
51216;SDS011;37283;49.760;8.648;2023-12-20T01:07:21;4.93;;;3.15;;
51216;SDS011;37283;49.760;8.648;2023-12-20T01:09:48;3.53;;;3.08;;
51216;SDS011;37283;49.760;8.648;2023-12-20T01:12:14;3.58;;;2.95;;
51216;SDS011;37283;49.760;8.648;2023-12-20T01:14:41;3.78;;;2.75;;
51216;SDS011;37283;49.760;8.648;2023-12-20T01:17:08;4.65;;;2.90;;
51216;SDS011;37283;49.760;8.648;2023-12-20T01:19:35;2.88;;;2.40;;
51216;SDS011;37283;49.760;8.648;2023-12-20T01:22:02;2.90;;;2.50;;
51216;SDS011;37283;49.760;8.648;2023-12-20T01:24:29;2.80;;;2.45;;
51216;SDS011;37283;49.760;8.648;2023-12-20T01:26:56;2.78;;;2.10;;
51216;SDS011;37283;49.760;8.648;2023-12-20T01:29:22;3.72;;;2.13;;
51216;SDS011;37283;49.760;8.648;2023-12-20T01:31:49;2.65;;;2.30;;
51216;SDS011;37283;49.760;8.648;2023-12-20T01:34:17;3.67;;;2.58;;
51216;SDS011;37283;49.760;8.648;2023-12-20T01:36:44;2.35;;;2.15;;
51216;SDS011;37283;49.760;8.648;2023-12-20T01:39:10;4.35;;;2.70;;
51216;SDS011;37283;49.760;8.648;2023-12-20T01:41:50;2.55;;;2.35;;
51216;SDS011;37283;49.760;8.648;2023-12-20T01:44:17;3.33;;;2.67;;
51216;SDS011;37283;49.760;8.648;2023-12-20T01:46:44;3.05;;;2.42;;
51216;SDS011;37283;49.760;8.648;2023-12-20T01:49:11;2.60;;;1.95;;
51216;SDS011;37283;49.760;8.648;2023-12-20T01:51:38;3.42;;;2.00;;
51216;SDS011;37283;49.760;8.648;2023-12-20T01:54:05;2.53;;;2.08;;
51216;SDS011;37283;49.760;8.648;2023-12-20T01:56:32;2.70;;;1.98;;
51216;SDS011;37283;49.760;8.648;2023-12-20T01:58:59;2.25;;;1.90;;
51216;SDS011;37283;49.760;8.648;2023-12-20T02:01:26;2.40;;;1.98;;
51216;SDS011;37283;49.760;8.648;2023-12-20T02:03:54;1.73;;;1.63;;
51216;SDS011;37283;49.760;8.648;2023-12-20T02:06:22;2.30;;;1.65;;
51216;SDS011;37283;49.760;8.648;2023-12-20T02:08:49;3.05;;;1.83;;
51216;SDS011;37283;49.760;8.648;2023-12-20T02:11:16;1.80;;;1.60;;
51216;SDS011;37283;49.760;8.648;2023-12-20T02:13:42;2.72;;;1.60;;
51216;SDS011;37283;49.760;8.648;2023-12-20T02:16:09;2.17;;;1.50;;
51216;SDS011;37283;49.760;8.648;2023-12-20T02:18:36;2.92;;;1.75;;
51216;SDS011;37283;49.760;8.648;2023-12-20T02:21:04;1.67;;;1.55;;
51216;SDS011;37283;49.760;8.648;2023-12-20T02:23:31;2.55;;;1.63;;
51216;SDS011;37283;49.760;8.648;2023-12-20T02:25:58;2.20;;;1.80;;
51216;SDS011;37283;49.760;8.648;2023-12-20T02:28:24;1.92;;;1.73;;
51216;SDS011;37283;49.760;8.648;2023-12-20T02:30:51;1.90;;;1.60;;
51216;SDS011;37283;49.760;8.648;2023-12-20T02:33:18;2.25;;;1.90;;
51216;SDS011;37283;49.760;8.648;2023-12-20T02:35:45;2.90;;;1.90;;
51216;SDS011;37283;49.760;8.648;2023-12-20T02:38:11;2.22;;;1.98;;
51216;SDS011;37283;49.760;8.648;2023-12-20T02:40:38;2.85;;;2.17;;
51216;SDS011;37283;49.760;8.648;2023-12-20T02:43:04;2.28;;;2.08;;
51216;SDS011;37283;49.760;8.648;2023-12-20T02:45:31;2.95;;;2.13;;
51216;SDS011;37283;49.760;8.648;2023-12-20T02:47:57;2.92;;;2.13;;
51216;SDS011;37283;49.760;8.648;2023-12-20T02:50:24;2.63;;;1.90;;
51216;SDS011;37283;49.760;8.648;2023-12-20T02:52:50;3.75;;;2.05;;
51216;SDS011;37283;49.760;8.648;2023-12-20T02:55:17;2.00;;;1.75;;
51216;SDS011;37283;49.760;8.648;2023-12-20T02:57:44;2.17;;;1.75;;
51216;SDS011;37283;49.760;8.648;2023-12-20T03:00:11;2.55;;;2.15;;
51216;SDS011;37283;49.760;8.648;2023-12-20T03:02:38;3.20;;;1.95;;
51216;SDS011;37283;49.760;8.648;2023-12-20T03:05:05;2.08;;;1.60;;
51216;SDS011;37283;49.760;8.648;2023-12-20T03:07:32;1.77;;;1.67;;
51216;SDS011;37283;49.760;8.648;2023-12-20T03:09:58;1.70;;;1.52;;
51216;SDS011;37283;49.760;8.648;2023-12-20T03:12:44;2.00;;;1.58;;
51216;SDS011;37283;49.760;8.648;2023-12-20T03:15:11;1.95;;;1.75;;
51216;SDS011;37283;49.760;8.648;2023-12-20T03:17:37;3.10;;;2.28;;
51216;SDS011;37283;49.760;8.648;2023-12-20T03:20:04;2.15;;;1.83;;
51216;SDS011;37283;49.760;8.648;2023-12-20T03:22:31;2.03;;;1.83;;
51216;SDS011;37283;49.760;8.648;2023-12-20T03:24:58;2.00;;;1.80;;
51216;SDS011;37283;49.760;8.648;2023-12-20T03:27:25;3.42;;;1.65;;
51216;SDS011;37283;49.760;8.648;2023-12-20T03:29:51;2.05;;;1.50;;
51216;SDS011;37283;49.760;8.648;2023-12-20T03:32:18;3.13;;;1.50;;
51216;SDS011;37283;49.760;8.648;2023-12-20T03:34:44;1.67;;;1.40;;
51216;SDS011;37283;49.760;8.648;2023-12-20T03:37:11;1.42;;;1.30;;
51216;SDS011;37283;49.760;8.648;2023-12-20T03:39:38;1.90;;;1.60;;
51216;SDS011;37283;49.760;8.648;2023-12-20T03:42:04;2.33;;;1.70;;
51216;SDS011;37283;49.760;8.648;2023-12-20T03:44:31;2.35;;;1.90;;
51216;SDS011;37283;49.760;8.648;2023-12-20T03:46:57;1.70;;;1.60;;
51216;SDS011;37283;49.760;8.648;2023-12-20T03:49:24;2.38;;;1.60;;
51216;SDS011;37283;49.760;8.648;2023-12-20T03:51:51;2.17;;;1.77;;
51216;SDS011;37283;49.760;8.648;2023-12-20T03:54:17;2.80;;;1.83;;
51216;SDS011;37283;49.760;8.648;2023-12-20T03:56:44;3.28;;;2.03;;
51216;SDS011;37283;49.760;8.648;2023-12-20T03:59:10;3.20;;;1.80;;
51216;SDS011;37283;49.760;8.648;2023-12-20T04:01:37;2.15;;;1.95;;
51216;SDS011;37283;49.760;8.648;2023-12-20T04:04:04;2.30;;;1.88;;
51216;SDS011;37283;49.760;8.648;2023-12-20T04:06:30;2.15;;;1.95;;
51216;SDS011;37283;49.760;8.648;2023-12-20T04:08:57;2.40;;;1.95;;
51216;SDS011;37283;49.760;8.648;2023-12-20T04:11:24;2.38;;;1.77;;
51216;SDS011;37283;49.760;8.648;2023-12-20T04:13:51;1.90;;;1.60;;
51216;SDS011;37283;49.760;8.648;2023-12-20T04:16:17;2.15;;;1.95;;
51216;SDS011;37283;49.760;8.648;2023-12-20T04:18:44;2.03;;;1.83;;
51216;SDS011;37283;49.760;8.648;2023-12-20T04:21:11;2.08;;;1.88;;
51216;SDS011;37283;49.760;8.648;2023-12-20T04:23:38;2.55;;;1.90;;
51216;SDS011;37283;49.760;8.648;2023-12-20T04:26:04;2.30;;;1.95;;
51216;SDS011;37283;49.760;8.648;2023-12-20T04:28:31;3.50;;;1.67;;
51216;SDS011;37283;49.760;8.648;2023-12-20T04:30:58;2.28;;;1.90;;
51216;SDS011;37283;49.760;8.648;2023-12-20T04:33:24;2.33;;;1.83;;
51216;SDS011;37283;49.760;8.648;2023-12-20T04:35:51;2.45;;;2.08;;
51216;SDS011;37283;49.760;8.648;2023-12-20T04:38:18;2.22;;;2.00;;
51216;SDS011;37283;49.760;8.648;2023-12-20T04:40:44;2.63;;;2.13;;
51216;SDS011;37283;49.760;8.648;2023-12-20T04:43:11;2.70;;;2.10;;
51216;SDS011;37283;49.760;8.648;2023-12-20T04:45:37;3.08;;;2.10;;
51216;SDS011;37283;49.760;8.648;2023-12-20T04:48:04;2.50;;;2.30;;
51216;SDS011;37283;49.760;8.648;2023-12-20T04:50:31;3.05;;;2.40;;
51216;SDS011;37283;49.760;8.648;2023-12-20T04:52:57;2.85;;;2.50;;
51216;SDS011;37283;49.760;8.648;2023-12-20T04:55:24;3.30;;;2.70;;
51216;SDS011;37283;49.760;8.648;2023-12-20T04:57:51;2.72;;;2.30;;
51216;SDS011;37283;49.760;8.648;2023-12-20T05:00:17;3.10;;;2.28;;
51216;SDS011;37283;49.760;8.648;2023-12-20T05:02:44;2.67;;;2.40;;
51216;SDS011;37283;49.760;8.648;2023-12-20T05:05:11;2.35;;;2.13;;
51216;SDS011;37283;49.760;8.648;2023-12-20T05:07:37;2.20;;;2.00;;
51216;SDS011;37283;49.760;8.648;2023-12-20T05:10:04;2.10;;;1.90;;
51216;SDS011;37283;49.760;8.648;2023-12-20T05:12:31;1.85;;;1.70;;
51216;SDS011;37283;49.760;8.648;2023-12-20T05:14:58;3.22;;;2.30;;
51216;SDS011;37283;49.760;8.648;2023-12-20T05:17:25;2.50;;;2.30;;
51216;SDS011;37283;49.760;8.648;2023-12-20T05:19:52;4.38;;;2.60;;
51216;SDS011;37283;49.760;8.648;2023-12-20T05:22:19;2.63;;;2.40;;
51216;SDS011;37283;49.760;8.648;2023-12-20T05:24:46;2.30;;;1.98;;
51216;SDS011;37283;49.760;8.648;2023-12-20T05:27:13;2.63;;;2.20;;
51216;SDS011;37283;49.760;8.648;2023-12-20T05:29:39;3.38;;;2.70;;
51216;SDS011;37283;49.760;8.648;2023-12-20T05:32:06;2.85;;;2.50;;
51216;SDS011;37283;49.760;8.648;2023-12-20T05:34:33;2.78;;;2.50;;
51216;SDS011;37283;49.760;8.648;2023-12-20T05:36:59;2.65;;;2.28;;
51216;SDS011;37283;49.760;8.648;2023-12-20T05:39:28;2.40;;;1.98;;
51216;SDS011;37283;49.760;8.648;2023-12-20T05:41:54;2.70;;;2.47;;
51216;SDS011;37283;49.760;8.648;2023-12-20T05:44:21;3.08;;;2.25;;
51216;SDS011;37283;49.760;8.648;2023-12-20T05:46:47;3.33;;;2.47;;
51216;SDS011;37283;49.760;8.648;2023-12-20T05:49:14;3.13;;;2.42;;
51216;SDS011;37283;49.760;8.648;2023-12-20T05:51:41;2.55;;;2.25;;
51216;SDS011;37283;49.760;8.648;2023-12-20T05:54:08;3.22;;;2.30;;
51216;SDS011;37283;49.760;8.648;2023-12-20T05:56:35;3.55;;;2.13;;
51216;SDS011;37283;49.760;8.648;2023-12-20T05:59:02;3.30;;;2.00;;
51216;SDS011;37283;49.760;8.648;2023-12-20T06:01:28;3.15;;;2.20;;
51216;SDS011;37283;49.760;8.648;2023-12-20T06:03:55;3.58;;;2.10;;
51216;SDS011;37283;49.760;8.648;2023-12-20T06:06:22;5.10;;;1.90;;
51216;SDS011;37283;49.760;8.648;2023-12-20T06:08:49;3.13;;;2.10;;
51216;SDS011;37283;49.760;8.648;2023-12-20T06:11:15;3.88;;;2.03;;
51216;SDS011;37283;49.760;8.648;2023-12-20T06:13:42;3.67;;;1.83;;
51216;SDS011;37283;49.760;8.648;2023-12-20T06:16:08;4.40;;;1.90;;
51216;SDS011;37283;49.760;8.648;2023-12-20T06:18:35;6.15;;;1.92;;
51216;SDS011;37283;49.760;8.648;2023-12-20T06:21:03;3.05;;;1.80;;
51216;SDS011;37283;49.760;8.648;2023-12-20T06:23:30;5.05;;;2.90;;
51216;SDS011;37283;49.760;8.648;2023-12-20T06:25:57;4.43;;;1.70;;
51216;SDS011;37283;49.760;8.648;2023-12-20T06:28:24;4.95;;;1.45;;
51216;SDS011;37283;49.760;8.648;2023-12-20T06:30:50;2.25;;;1.55;;
51216;SDS011;37283;49.760;8.648;2023-12-20T06:33:19;4.37;;;1.60;;
51216;SDS011;37283;49.760;8.648;2023-12-20T06:35:48;5.30;;;1.60;;
51216;SDS011;37283;49.760;8.648;2023-12-20T06:38:14;4.55;;;1.20;;
51216;SDS011;37283;49.760;8.648;2023-12-20T06:40:41;6.28;;;1.80;;
51216;SDS011;37283;49.760;8.648;2023-12-20T06:43:09;4.57;;;1.30;;
51216;SDS011;37283;49.760;8.648;2023-12-20T06:45:49;4.43;;;1.58;;
51216;SDS011;37283;49.760;8.648;2023-12-20T06:48:16;4.47;;;1.50;;
51216;SDS011;37283;49.760;8.648;2023-12-20T06:50:44;5.68;;;1.52;;
51216;SDS011;37283;49.760;8.648;2023-12-20T06:53:11;4.07;;;1.20;;
51216;SDS011;37283;49.760;8.648;2023-12-20T06:55:37;4.97;;;1.25;;
51216;SDS011;37283;49.760;8.648;2023-12-20T06:58:04;4.03;;;1.27;;
51216;SDS011;37283;49.760;8.648;2023-12-20T07:00:31;4.63;;;1.30;;
51216;SDS011;37283;49.760;8.648;2023-12-20T07:02:58;3.50;;;1.10;;
51216;SDS011;37283;49.760;8.648;2023-12-20T07:05:25;7.00;;;1.50;;
51216;SDS011;37283;49.760;8.648;2023-12-20T07:07:51;3.63;;;1.13;;
51216;SDS011;37283;49.760;8.648;2023-12-20T07:10:18;5.28;;;1.20;;
51216;SDS011;37283;49.760;8.648;2023-12-20T07:12:44;3.92;;;1.10;;
51216;SDS011;37283;49.760;8.648;2023-12-20T07:15:11;3.63;;;1.15;;
51216;SDS011;37283;49.760;8.648;2023-12-20T07:17:38;3.97;;;1.20;;
51216;SDS011;37283;49.760;8.648;2023-12-20T07:20:05;4.05;;;1.15;;
51216;SDS011;37283;49.760;8.648;2023-12-20T07:22:36;4.22;;;1.23;;
51216;SDS011;37283;49.760;8.648;2023-12-20T07:25:03;4.20;;;1.10;;
51216;SDS011;37283;49.760;8.648;2023-12-20T07:27:30;5.15;;;1.42;;
51216;SDS011;37283;49.760;8.648;2023-12-20T07:29:57;4.45;;;1.45;;
51216;SDS011;37283;49.760;8.648;2023-12-20T07:32:23;4.53;;;1.30;;
51216;SDS011;37283;49.760;8.648;2023-12-20T07:34:50;8.88;;;1.67;;
51216;SDS011;37283;49.760;8.648;2023-12-20T07:37:16;5.13;;;1.48;;
51216;SDS011;37283;49.760;8.648;2023-12-20T07:39:43;5.97;;;1.42;;
51216;SDS011;37283;49.760;8.648;2023-12-20T07:42:10;7.35;;;1.50;;
51216;SDS011;37283;49.760;8.648;2023-12-20T07:44:37;2.95;;;1.20;;
51216;SDS011;37283;49.760;8.648;2023-12-20T07:47:03;3.95;;;1.25;;
51216;SDS011;37283;49.760;8.648;2023-12-20T07:49:30;5.53;;;1.20;;
51216;SDS011;37283;49.760;8.648;2023-12-20T07:51:58;7.00;;;1.33;;
51216;SDS011;37283;49.760;8.648;2023-12-20T07:54:25;8.52;;;1.58;;
51216;SDS011;37283;49.760;8.648;2023-12-20T07:56:51;6.50;;;1.15;;
51216;SDS011;37283;49.760;8.648;2023-12-20T07:59:18;5.82;;;1.50;;
51216;SDS011;37283;49.760;8.648;2023-12-20T08:04:24;6.25;;;1.52;;
51216;SDS011;37283;49.760;8.648;2023-12-20T08:06:51;6.15;;;1.73;;
51216;SDS011;37283;49.760;8.648;2023-12-20T08:09:18;5.13;;;1.50;;
51216;SDS011;37283;49.760;8.648;2023-12-20T08:11:46;4.45;;;1.50;;
51216;SDS011;37283;49.760;8.648;2023-12-20T08:14:15;5.57;;;1.85;;
51216;SDS011;37283;49.760;8.648;2023-12-20T08:19:10;7.20;;;1.30;;
51216;SDS011;37283;49.760;8.648;2023-12-20T08:21:40;4.57;;;1.67;;
51216;SDS011;37283;49.760;8.648;2023-12-20T08:24:11;5.40;;;1.77;;
51216;SDS011;37283;49.760;8.648;2023-12-20T08:26:38;2.55;;;1.10;;
51216;SDS011;37283;49.760;8.648;2023-12-20T08:29:04;4.97;;;1.48;;
51216;SDS011;37283;49.760;8.648;2023-12-20T08:31:31;5.85;;;1.88;;
51216;SDS011;37283;49.760;8.648;2023-12-20T08:33:58;6.53;;;1.50;;
51216;SDS011;37283;49.760;8.648;2023-12-20T08:36:24;4.65;;;1.30;;
51216;SDS011;37283;49.760;8.648;2023-12-20T08:38:51;4.00;;;1.40;;
51216;SDS011;37283;49.760;8.648;2023-12-20T08:41:18;5.13;;;1.48;;
51216;SDS011;37283;49.760;8.648;2023-12-20T08:43:44;5.18;;;1.63;;
51216;SDS011;37283;49.760;8.648;2023-12-20T08:46:11;10.20;;;1.85;;
51216;SDS011;37283;49.760;8.648;2023-12-20T08:48:38;4.10;;;1.40;;
51216;SDS011;37283;49.760;8.648;2023-12-20T08:51:05;5.90;;;1.58;;
51216;SDS011;37283;49.760;8.648;2023-12-20T08:53:35;5.47;;;1.60;;
51216;SDS011;37283;49.760;8.648;2023-12-20T08:56:02;6.65;;;1.88;;
51216;SDS011;37283;49.760;8.648;2023-12-20T08:58:29;6.68;;;1.40;;
51216;SDS011;37283;49.760;8.648;2023-12-20T09:00:56;7.65;;;1.50;;
51216;SDS011;37283;49.760;8.648;2023-12-20T09:03:24;3.55;;;1.40;;
51216;SDS011;37283;49.760;8.648;2023-12-20T09:05:50;5.35;;;2.63;;
51216;SDS011;37283;49.760;8.648;2023-12-20T09:08:17;6.18;;;1.90;;
51216;SDS011;37283;49.760;8.648;2023-12-20T09:10:43;5.10;;;2.08;;
51216;SDS011;37283;49.760;8.648;2023-12-20T09:13:11;5.30;;;1.70;;
51216;SDS011;37283;49.760;8.648;2023-12-20T09:15:37;4.07;;;2.00;;
51216;SDS011;37283;49.760;8.648;2023-12-20T09:18:04;7.43;;;2.08;;
51216;SDS011;37283;49.760;8.648;2023-12-20T09:20:31;6.60;;;2.45;;
51216;SDS011;37283;49.760;8.648;2023-12-20T09:22:58;6.45;;;2.10;;
51216;SDS011;37283;49.760;8.648;2023-12-20T09:25:24;5.93;;;2.05;;
51216;SDS011;37283;49.760;8.648;2023-12-20T09:27:53;5.65;;;2.30;;
51216;SDS011;37283;49.760;8.648;2023-12-20T09:30:19;8.10;;;2.40;;
51216;SDS011;37283;49.760;8.648;2023-12-20T09:32:54;9.25;;;2.90;;
51216;SDS011;37283;49.760;8.648;2023-12-20T09:35:21;6.35;;;2.25;;
51216;SDS011;37283;49.760;8.648;2023-12-20T09:37:48;7.68;;;2.30;;
51216;SDS011;37283;49.760;8.648;2023-12-20T09:40:14;7.07;;;2.40;;
51216;SDS011;37283;49.760;8.648;2023-12-20T09:42:57;5.28;;;2.17;;
51216;SDS011;37283;49.760;8.648;2023-12-20T09:45:25;8.15;;;2.33;;
51216;SDS011;37283;49.760;8.648;2023-12-20T09:47:52;5.40;;;1.90;;
51216;SDS011;37283;49.760;8.648;2023-12-20T09:50:20;8.38;;;2.83;;
51216;SDS011;37283;49.760;8.648;2023-12-20T09:52:49;7.68;;;1.98;;
51216;SDS011;37283;49.760;8.648;2023-12-20T09:55:19;6.85;;;2.10;;
51216;SDS011;37283;49.760;8.648;2023-12-20T09:57:47;7.88;;;2.30;;
51216;SDS011;37283;49.760;8.648;2023-12-20T10:00:15;8.30;;;2.50;;
51216;SDS011;37283;49.760;8.648;2023-12-20T10:02:44;6.28;;;2.10;;
51216;SDS011;37283;49.760;8.648;2023-12-20T10:05:15;7.50;;;1.80;;
51216;SDS011;37283;49.760;8.648;2023-12-20T10:07:46;7.43;;;2.45;;
51216;SDS011;37283;49.760;8.648;2023-12-20T10:10:14;10.30;;;2.40;;
51216;SDS011;37283;49.760;8.648;2023-12-20T10:12:42;6.18;;;2.30;;
51216;SDS011;37283;49.760;8.648;2023-12-20T10:15:27;9.73;;;2.30;;
51216;SDS011;37283;49.760;8.648;2023-12-20T10:17:54;9.68;;;2.40;;
51216;SDS011;37283;49.760;8.648;2023-12-20T10:20:25;9.27;;;2.35;;
51216;SDS011;37283;49.760;8.648;2023-12-20T10:22:52;7.30;;;1.88;;
51216;SDS011;37283;49.760;8.648;2023-12-20T10:25:21;8.10;;;1.98;;
51216;SDS011;37283;49.760;8.648;2023-12-20T10:27:49;8.68;;;1.92;;
51216;SDS011;37283;49.760;8.648;2023-12-20T10:30:16;8.20;;;2.35;;
51216;SDS011;37283;49.760;8.648;2023-12-20T10:32:43;10.25;;;2.25;;
51216;SDS011;37283;49.760;8.648;2023-12-20T10:35:09;9.93;;;2.10;;
51216;SDS011;37283;49.760;8.648;2023-12-20T10:37:39;6.68;;;1.95;;
51216;SDS011;37283;49.760;8.648;2023-12-20T10:42:32;8.88;;;2.33;;
51216;SDS011;37283;49.760;8.648;2023-12-20T10:45:00;4.80;;;1.63;;
51216;SDS011;37283;49.760;8.648;2023-12-20T10:47:27;6.88;;;1.90;;
51216;SDS011;37283;49.760;8.648;2023-12-20T10:49:54;7.05;;;1.90;;
51216;SDS011;37283;49.760;8.648;2023-12-20T10:52:23;6.50;;;1.70;;
51216;SDS011;37283;49.760;8.648;2023-12-20T10:54:50;8.15;;;2.00;;
51216;SDS011;37283;49.760;8.648;2023-12-20T10:57:17;7.18;;;2.50;;
51216;SDS011;37283;49.760;8.648;2023-12-20T10:59:44;7.20;;;1.70;;
51216;SDS011;37283;49.760;8.648;2023-12-20T11:02:16;8.57;;;2.10;;
51216;SDS011;37283;49.760;8.648;2023-12-20T11:07:35;6.88;;;2.28;;
51216;SDS011;37283;49.760;8.648;2023-12-20T11:10:10;7.75;;;2.10;;
51216;SDS011;37283;49.760;8.648;2023-12-20T11:12:44;7.82;;;2.47;;
51216;SDS011;37283;49.760;8.648;2023-12-20T11:15:15;9.13;;;2.60;;
51216;SDS011;37283;49.760;8.648;2023-12-20T11:17:44;8.60;;;2.10;;
51216;SDS011;37283;49.760;8.648;2023-12-20T11:20:17;8.95;;;2.08;;
51216;SDS011;37283;49.760;8.648;2023-12-20T11:22:53;11.85;;;2.45;;
51216;SDS011;37283;49.760;8.648;2023-12-20T11:25:20;8.48;;;2.00;;
51216;SDS011;37283;49.760;8.648;2023-12-20T11:28:06;8.50;;;2.05;;
51216;SDS011;37283;49.760;8.648;2023-12-20T11:30:40;7.00;;;1.90;;
51216;SDS011;37283;49.760;8.648;2023-12-20T11:33:14;8.38;;;2.28;;
51216;SDS011;37283;49.760;8.648;2023-12-20T11:35:42;12.25;;;2.60;;
51216;SDS011;37283;49.760;8.648;2023-12-20T11:38:09;7.97;;;2.20;;
51216;SDS011;37283;49.760;8.648;2023-12-20T11:40:36;7.72;;;2.33;;
51216;SDS011;37283;49.760;8.648;2023-12-20T11:43:03;8.68;;;2.20;;
51216;SDS011;37283;49.760;8.648;2023-12-20T11:45:31;7.70;;;2.28;;
51216;SDS011;37283;49.760;8.648;2023-12-20T11:47:58;8.32;;;2.40;;
51216;SDS011;37283;49.760;8.648;2023-12-20T11:50:25;10.85;;;2.80;;
51216;SDS011;37283;49.760;8.648;2023-12-20T11:52:52;8.15;;;2.38;;
51216;SDS011;37283;49.760;8.648;2023-12-20T11:55:19;9.10;;;1.98;;
51216;SDS011;37283;49.760;8.648;2023-12-20T11:57:46;7.55;;;2.35;;
51216;SDS011;37283;49.760;8.648;2023-12-20T12:00:13;10.23;;;2.45;;
51216;SDS011;37283;49.760;8.648;2023-12-20T12:02:40;9.75;;;2.05;;
51216;SDS011;37283;49.760;8.648;2023-12-20T12:05:07;6.78;;;2.13;;
51216;SDS011;37283;49.760;8.648;2023-12-20T12:07:34;10.48;;;2.90;;
51216;SDS011;37283;49.760;8.648;2023-12-20T12:10:02;9.10;;;2.80;;
51216;SDS011;37283;49.760;8.648;2023-12-20T12:12:30;9.52;;;2.53;;
51216;SDS011;37283;49.760;8.648;2023-12-20T12:14:57;11.93;;;2.70;;
51216;SDS011;37283;49.760;8.648;2023-12-20T12:17:24;7.10;;;2.58;;
51216;SDS011;37283;49.760;8.648;2023-12-20T12:19:51;11.68;;;2.75;;
51216;SDS011;37283;49.760;8.648;2023-12-20T12:22:28;10.10;;;2.35;;
51216;SDS011;37283;49.760;8.648;2023-12-20T12:24:55;10.85;;;3.00;;
51216;SDS011;37283;49.760;8.648;2023-12-20T12:27:25;16.08;;;3.45;;
51216;SDS011;37283;49.760;8.648;2023-12-20T12:30:00;13.75;;;3.25;;
51216;SDS011;37283;49.760;8.648;2023-12-20T12:32:28;12.68;;;2.83;;
51216;SDS011;37283;49.760;8.648;2023-12-20T12:34:55;11.45;;;2.78;;
51216;SDS011;37283;49.760;8.648;2023-12-20T12:37:22;9.57;;;2.53;;
51216;SDS011;37283;49.760;8.648;2023-12-20T12:39:50;15.35;;;3.28;;
51216;SDS011;37283;49.760;8.648;2023-12-20T12:42:16;10.20;;;3.00;;
51216;SDS011;37283;49.760;8.648;2023-12-20T12:44:43;10.25;;;3.08;;
51216;SDS011;37283;49.760;8.648;2023-12-20T12:47:09;9.40;;;3.00;;
51216;SDS011;37283;49.760;8.648;2023-12-20T12:49:36;8.20;;;2.83;;
51216;SDS011;37283;49.760;8.648;2023-12-20T12:52:03;8.32;;;2.47;;
51216;SDS011;37283;49.760;8.648;2023-12-20T12:54:29;10.80;;;2.83;;
51216;SDS011;37283;49.760;8.648;2023-12-20T12:56:56;12.05;;;2.38;;
51216;SDS011;37283;49.760;8.648;2023-12-20T12:59:24;10.07;;;2.95;;
51216;SDS011;37283;49.760;8.648;2023-12-20T13:01:51;9.35;;;2.80;;
51216;SDS011;37283;49.760;8.648;2023-12-20T13:04:19;10.32;;;2.70;;
51216;SDS011;37283;49.760;8.648;2023-12-20T13:06:46;10.00;;;2.60;;
51216;SDS011;37283;49.760;8.648;2023-12-20T13:09:13;8.52;;;2.35;;
51216;SDS011;37283;49.760;8.648;2023-12-20T13:11:40;8.50;;;2.22;;
51216;SDS011;37283;49.760;8.648;2023-12-20T13:14:06;8.57;;;2.30;;
51216;SDS011;37283;49.760;8.648;2023-12-20T13:16:36;5.60;;;2.10;;
51216;SDS011;37283;49.760;8.648;2023-12-20T13:19:03;7.93;;;2.28;;
51216;SDS011;37283;49.760;8.648;2023-12-20T13:21:30;8.80;;;2.70;;
51216;SDS011;37283;49.760;8.648;2023-12-20T13:23:57;9.27;;;2.55;;
51216;SDS011;37283;49.760;8.648;2023-12-20T13:26:24;8.73;;;2.53;;
51216;SDS011;37283;49.760;8.648;2023-12-20T13:28:51;7.95;;;2.50;;
51216;SDS011;37283;49.760;8.648;2023-12-20T13:31:17;7.88;;;2.75;;
51216;SDS011;37283;49.760;8.648;2023-12-20T13:33:44;10.38;;;2.67;;
51216;SDS011;37283;49.760;8.648;2023-12-20T13:36:10;8.60;;;2.58;;
51216;SDS011;37283;49.760;8.648;2023-12-20T13:38:37;8.65;;;2.05;;
51216;SDS011;37283;49.760;8.648;2023-12-20T13:41:04;9.82;;;2.72;;
51216;SDS011;37283;49.760;8.648;2023-12-20T13:43:34;7.72;;;2.38;;
51216;SDS011;37283;49.760;8.648;2023-12-20T13:46:01;9.75;;;2.35;;
51216;SDS011;37283;49.760;8.648;2023-12-20T13:48:27;8.88;;;2.30;;
51216;SDS011;37283;49.760;8.648;2023-12-20T13:50:54;8.02;;;2.38;;
51216;SDS011;37283;49.760;8.648;2023-12-20T13:53:21;11.65;;;3.20;;
51216;SDS011;37283;49.760;8.648;2023-12-20T13:55:47;7.95;;;2.75;;
51216;SDS011;37283;49.760;8.648;2023-12-20T13:58:14;9.02;;;2.50;;
51216;SDS011;37283;49.760;8.648;2023-12-20T14:00:41;12.70;;;2.65;;
51216;SDS011;37283;49.760;8.648;2023-12-20T14:03:07;6.97;;;2.10;;
51216;SDS011;37283;49.760;8.648;2023-12-20T14:05:35;8.00;;;2.13;;
51216;SDS011;37283;49.760;8.648;2023-12-20T14:08:02;9.77;;;2.38;;
51216;SDS011;37283;49.760;8.648;2023-12-20T14:10:30;9.48;;;2.42;;
51216;SDS011;37283;49.760;8.648;2023-12-20T14:12:57;7.93;;;2.20;;
51216;SDS011;37283;49.760;8.648;2023-12-20T14:15:24;7.72;;;2.20;;
51216;SDS011;37283;49.760;8.648;2023-12-20T14:17:51;9.13;;;2.58;;
51216;SDS011;37283;49.760;8.648;2023-12-20T14:20:19;7.57;;;2.22;;
51216;SDS011;37283;49.760;8.648;2023-12-20T14:22:45;5.80;;;2.15;;
51216;SDS011;37283;49.760;8.648;2023-12-20T14:25:13;8.63;;;2.20;;
51216;SDS011;37283;49.760;8.648;2023-12-20T14:27:40;8.30;;;2.35;;
51216;SDS011;37283;49.760;8.648;2023-12-20T14:30:10;9.73;;;2.22;;
51216;SDS011;37283;49.760;8.648;2023-12-20T14:32:38;9.88;;;2.40;;
51216;SDS011;37283;49.760;8.648;2023-12-20T14:35:05;7.32;;;1.92;;
51216;SDS011;37283;49.760;8.648;2023-12-20T14:37:32;6.30;;;2.05;;
51216;SDS011;37283;49.760;8.648;2023-12-20T14:39:59;6.85;;;2.10;;
51216;SDS011;37283;49.760;8.648;2023-12-20T14:42:25;10.63;;;2.40;;
51216;SDS011;37283;49.760;8.648;2023-12-20T14:44:52;6.63;;;2.05;;
51216;SDS011;37283;49.760;8.648;2023-12-20T14:47:20;7.70;;;2.43;;
51216;SDS011;37283;49.760;8.648;2023-12-20T14:49:47;10.98;;;2.08;;
51216;SDS011;37283;49.760;8.648;2023-12-20T14:52:14;5.20;;;2.22;;
51216;SDS011;37283;49.760;8.648;2023-12-20T14:54:41;7.68;;;2.00;;
51216;SDS011;37283;49.760;8.648;2023-12-20T14:57:09;7.47;;;2.22;;